Flight Track Log - Related Links

Times and Time Zones

All times are in EDT time to prevent confusion due to time zone crossing. See the VIN11 flight status page for this flight to view local times or setup timezone preferences in your user account.

Time Position Orientation Groundspeed Altitude Reporting Facility
EDT Latitude Longitude Course Direction KTS MPH feet Rate Location/Type
Wed 04:27:10 AM -13.9592 136.3942 285° West 20,000  Level Aus ATC (Calculated)
Wed 04:28:03 AM -13.9429 136.3334 285° West 20,000  Level Aus ATC (Calculated)
Wed 04:30:00 AM -13.9394 136.3205 285° West  Level FlightAware Approximate
Wed 04:31:00 AM -13.9203 136.2491 285° West  Level FlightAware Approximate
Wed 04:31:03 AM -13.8940 136.1511 285° West 20,000  Level Aus ATC (Calculated)
Wed 04:33:00 AM -13.8566 136.0119 285° West  Level FlightAware Approximate
Wed 04:33:38 AM -13.8450 135.9688 285° West 20,000  Level Aus ATC (Calculated)
Wed 04:34:00 AM -13.8373 135.9405 285° West  Level FlightAware Approximate
Wed 04:35:00 AM -13.8187 135.8713 286° West  Level FlightAware Approximate
Wed 04:36:00 AM -13.7994 135.7999 286° West  Level FlightAware Approximate
Wed 04:37:00 AM -13.7801 135.7286 286° West  Level FlightAware Approximate
Wed 04:38:00 AM -13.7608 135.6573 286° West  Level FlightAware Approximate
Wed 04:39:00 AM -13.7415 135.5860 286° West  Level FlightAware Approximate
Wed 04:40:00 AM -13.7221 135.5146 286° West  Level FlightAware Approximate
Wed 04:41:00 AM -13.7028 135.4433 286° West  Level FlightAware Approximate
Wed 04:42:00 AM -13.6834 135.3721 286° West  Level FlightAware Approximate
Wed 04:43:00 AM -13.6640 135.3008 286° West  Level FlightAware Approximate
Wed 04:44:00 AM -13.6445 135.2295 286° West  Level FlightAware Approximate
Wed 04:45:00 AM -13.6251 135.1583 286° West  Level FlightAware Approximate
Wed 04:46:00 AM -13.6056 135.0870 286° West  Level FlightAware Approximate
Wed 04:46:49 AM -13.6298 135.1515 286° West 330 380  Level Aus ATC (RADAR)
Wed 04:47:38 AM -13.6157 135.0918 284° West 300 345 20,000 8,633 Climbing Aus ATC (RADAR)
Wed 04:48:23 AM -13.5987 135.0383 288° West 272 313  Descending Aus ATC (RADAR)
Wed 04:49:08 AM -13.5836 134.9852 286° West 262 302 20,000 15,000 Climbing Aus ATC (RADAR)
Wed 04:49:43 AM -13.5704 134.9423 288° West 266 306 20,000  Level Aus ATC (RADAR)
Wed 04:50:28 AM -13.5543 134.8873 287° West 268 308 20,000 57 Level Aus ATC (RADAR)
Wed 04:51:28 AM -13.5376 134.8118 283° West 270 311 20,100 57 Climbing Aus ATC (RADAR)
Wed 04:52:13 AM -13.5265 134.7569 282° West 264 304 20,100  Level Aus ATC (RADAR)
Wed 04:52:53 AM -13.5147 134.7076 284° West 262 302 20,100  Level Aus ATC (RADAR)
Wed 04:53:39 AM -13.4984 134.6526 287° West 262 302 20,100  Level Aus ATC (RADAR)
Wed 04:54:28 AM -13.4785 134.5934 289° West 262 302 20,100  Level Aus ATC (RADAR)
Wed 04:55:13 AM -13.4592 134.5383 290° West 268 308 20,100  Level Aus ATC (RADAR)
Wed 04:55:48 AM -13.4454 134.4953 288° West 269 310 20,100  Level Aus ATC (RADAR)
Wed 04:56:47 AM -13.4214 134.4234 289° West 263 303 20,100  Level Aus ATC (RADAR)
Wed 04:57:37 AM -13.3980 134.3637 292° West 266 306 20,100 -60 Level Aus ATC (RADAR)
Wed 04:58:27 AM -13.3771 134.3028 289° West 268 308 20,000 -75 Descending Aus ATC (RADAR)
Wed 04:58:57 AM -13.3632 134.2686 293° West 259 298 20,000  Level Aus ATC (RADAR)
Wed 04:59:32 AM -13.3462 134.2279 293° West 260 299 20,000  Level Aus ATC (RADAR)
Wed 05:00:09 AM -13.3315 134.1873 291° West 260 299 20,000  Level Aus ATC (RADAR)
Wed 05:00:45 AM -13.3162 134.1467 291° West 259 298 20,000  Level Aus ATC (RADAR)
Wed 05:01:37 AM -13.2907 134.0816 292° West 264 304 20,000 -59 Level Aus ATC (RADAR)
Wed 05:02:27 AM -13.2607 134.0172 296° West 277 319 19,900 -60 Descending Aus ATC (RADAR)
Wed 05:03:17 AM -13.2419 133.9617 289° West 244 281 19,900  Level Aus ATC (RADAR)
Wed 05:03:57 AM -13.2204 133.9107 293° West 261 300 19,900 75 Level Aus ATC (RADAR)
Wed 05:04:37 AM -13.2041 133.8631 289° West 266 306 20,000  Climbing Aus ATC (RADAR)
Wed 05:05:07 AM -13.1924 133.8272 289° West 263 303 19,900  Descending Aus ATC (RADAR)
Wed 05:05:42 AM -13.1778 133.7859 290° West 262 302 20,000  Climbing Aus ATC (RADAR)
Wed 05:06:22 AM -13.1599 133.7387 291° West 263 303 19,900 -81 Descending Aus ATC (RADAR)
Wed 05:06:56 AM -13.1452 133.6971 290° West 264 304 19,900 76 Level Aus ATC (RADAR)
Wed 05:07:41 AM -13.1261 133.6441 290° West 262 302 20,000 55 Climbing Aus ATC (RADAR)
Wed 05:08:46 AM -13.0967 133.5683 292° West 262 302 20,000  Level Aus ATC (RADAR)
Wed 05:09:31 AM -13.0768 133.5156 291° West 262 302 20,000  Level Aus ATC (RADAR)
Wed 05:10:06 AM -13.0590 133.4760 295° West 260 299 20,000  Level Aus ATC (RADAR)
Wed 05:10:41 AM -13.0409 133.4365 295° West 259 298 20,000  Level Aus ATC (RADAR)
Wed 05:11:21 AM -13.0217 133.3909 293° West 259 298 20,000  Level Aus ATC (RADAR)
Wed 05:11:56 AM -13.0052 133.3508 293° West 259 298 20,000  Level Aus ATC (RADAR)
Wed 05:12:41 AM -12.9859 133.2983 291° West 261 300 20,000 -52 Level Aus ATC (RADAR)
Wed 05:13:51 AM -12.9592 133.2146 288° West 263 303 19,900 -57 Descending Aus ATC (RADAR)
Wed 05:14:26 AM -12.9433 133.1731 292° West 264 304 19,900  Level Aus ATC (RADAR)
Wed 05:15:06 AM -12.9247 133.1260 292° West 264 304 19,900  Level Aus ATC (RADAR)
Wed 05:15:51 AM -12.9032 133.0739 293° West 261 300 19,900  Level Aus ATC (RADAR)
Wed 05:16:56 AM -12.8711 132.9987 294° West 262 302 19,900  Level Aus ATC (RADAR)
Wed 05:17:45 AM -12.8468 132.9405 293° West 263 303 19,900  Level Aus ATC (RADAR)
Wed 05:18:20 AM -12.8298 132.8999 293° West 263 303 19,900  Level Aus ATC (RADAR)
Wed 05:19:25 AM -12.7991 132.8239 293° West 264 304 19,900  Level Aus ATC (RADAR)
Wed 05:20:20 AM -12.7781 132.7578 288° West 263 303 19,900  Level Aus ATC (RADAR)
Wed 05:21:05 AM -12.7582 132.7043 291° West 264 304 19,900  Level Aus ATC (RADAR)
Wed 05:21:45 AM -12.7400 132.6576 292° West 263 303 19,900 80 Level Aus ATC (RADAR)
Wed 05:22:20 AM -12.7242 132.6165 291° West 262 302 20,000 80 Climbing Aus ATC (RADAR)
Wed 05:23:00 AM -12.7063 132.5692 291° West 264 304 20,000  Level Aus ATC (RADAR)
Wed 05:23:35 AM -12.6905 132.5278 291° West 265 305 20,000  Level Aus ATC (RADAR)
Wed 05:24:25 AM -12.6690 132.4688 291° West 261 300 20,000  Level Aus ATC (RADAR)
Wed 05:24:55 AM -12.6554 132.4336 292° West 262 302 20,000  Level Aus ATC (RADAR)
Wed 05:25:30 AM -12.6393 132.3924 292° West 264 304 20,000  Level Aus ATC (RADAR)
Wed 05:26:20 AM -12.6158 132.3328 292° West 266 306 20,000  Level Aus ATC (RADAR)
Wed 05:26:55 AM -12.5991 132.2913 292° West 266 306 20,000  Level Aus ATC (RADAR)
Wed 05:27:40 AM -12.5845 132.2363 285° West 262 302 20,000  Level Aus ATC (RADAR)
Wed 05:28:14 AM -12.5735 132.1928 285° West 266 306 20,000  Level Aus ATC (RADAR)
Wed 05:28:55 AM -12.5586 132.1432 287° West 270 311 20,000 -57 Level Aus ATC (RADAR)
Wed 05:29:59 AM -12.5359 132.0623 286° West 269 310 19,900  Descending Aus ATC (RADAR)
Wed 05:30:49 AM -12.5187 132.0007 286° West 268 308 20,000 71 Climbing Aus ATC (RADAR)
Wed 05:31:24 AM -12.5079 131.9572 284° West 267 307 20,000 -600 Level Aus ATC (RADAR)
Wed 05:32:09 AM -12.4934 131.9000 285° West 274 315 19,200 -1,257 Descending Aus ATC (RADAR)
Wed 05:33:09 AM -12.4752 131.8201 283° West 283 326 17,800 -1,486 Descending Aus ATC (RADAR)
Wed 05:33:54 AM -12.4632 131.7596 281° West 282 325 16,600 -1,624 Descending Aus ATC (RADAR)
Wed 05:34:34 AM -12.4581 131.7050 275° West 282 325 15,500 -1,600 Descending Aus ATC (RADAR)
Wed 05:35:24 AM -12.4613 131.6373 267° West 282 325 14,200 -1,582 Descending Aus ATC (RADAR)
Wed 05:36:24 AM -12.4631 131.5541 269° West 289 333 12,600 -1,429 Descending Aus ATC (RADAR)
Wed 05:37:09 AM -12.4637 131.4930 269° West 281 323 11,700 -1,367 Descending Aus ATC (RADAR)
Wed 05:37:43 AM -12.4658 131.4474 267° West 273 314 10,800 -1,291 Descending Aus ATC (RADAR)
Wed 05:38:28 AM -12.4670 131.3891 269° West 269 310 10,000 -1,096 Descending Aus ATC (RADAR)
Wed 05:39:38 AM -12.4690 131.3034 269° West 260 299 8,700 -1,309 Descending Aus ATC (RADAR)
Wed 05:40:18 AM -12.4695 131.2506 269° West 272 313 7,600 -1,760 Descending Aus ATC (RADAR)
Wed 05:40:53 AM -12.4700 131.2041 269° West 275 316 6,500 -1,800 Descending Aus ATC (RADAR)
Wed 05:41:38 AM -12.4700 131.1451 270° West 269 310 5,200 -1,575 Descending Aus ATC (RADAR)
Wed 05:42:13 AM -12.4685 131.1055 272° West 238 274 4,400 -1,629 Descending Aus ATC (RADAR)
Wed 05:42:48 AM -12.4673 131.0694 272° West 217 250 3,300 -1,286 Descending Aus ATC (RADAR)
Wed 05:43:23 AM -12.4649 131.0359 274° West 195 224 2,900 -771 Descending Aus ATC (RADAR)
Wed 05:43:58 AM -12.4575 131.0074 285° West 177 204 2,400 -988 Descending Aus ATC (RADAR)
Wed 05:44:48 AM -12.4435 130.9658 289° West 179 206 1,500 -927 Descending Aus ATC (RADAR)
Wed 05:45:48 AM -12.4293 130.9234 289° West 141 162 700 -743 Descending Aus ATC (RADAR)
Wed 05:46:33 AM -12.4203 130.8973 289° West 126 145 200 -667 Descending Aus ATC (RADAR)
Wed 05:48:00 AM -12.4146 130.8768 282° West  Level FlightAware Approximate
Wed 05:55:00 AM -12.4147 130.8767 282° West  Level Estimated
Wed 05:56:00 AM -12.4146 130.8768 282° West  Level FlightAware Approximate
Wed 05:57:00 AM -12.4147 130.8767 282° West  Level Estimated
Wed 05:58:00 AM -12.4146 130.8768 282° West  Level FlightAware Approximate
Wed 05:59:00 AM -12.4147 130.8767 282° West  Level Estimated
Wed 06:00:00 AM -12.4146 130.8768 282° West  Level FlightAware Approximate

Login

Don't have an account? Register now (free) for customized features, flight alerts, and more!